sensor_id;sensor_type;location;lat;lon;timestamp;pressure;altitude;pressure_sealevel;temperature;humidity
49473;BME280;67434;50.956;6.918;2023-04-02T00:01:35;100183.53;;;9.23;91.60
49473;BME280;67434;50.956;6.918;2023-04-02T00:04:23;100193.50;;;9.23;91.35
49473;BME280;67434;50.956;6.918;2023-04-02T00:07:23;100195.38;;;9.17;92.04
49473;BME280;67434;50.956;6.918;2023-04-02T00:10:34;100208.06;;;9.22;91.53
49473;BME280;67434;50.956;6.918;2023-04-02T00:13:23;100209.16;;;9.21;92.09
49473;BME280;67434;50.956;6.918;2023-04-02T00:16:13;100214.28;;;9.22;91.84
49473;BME280;67434;50.956;6.918;2023-04-02T00:19:05;100229.34;;;9.18;91.92
49473;BME280;67434;50.956;6.918;2023-04-02T00:21:53;100223.66;;;9.15;91.88
49473;BME280;67434;50.956;6.918;2023-04-02T00:24:40;100231.19;;;9.07;91.88
49473;BME280;67434;50.956;6.918;2023-04-02T00:27:26;100240.38;;;9.12;91.98
49473;BME280;67434;50.956;6.918;2023-04-02T00:30:12;100248.72;;;9.10;91.57
49473;BME280;67434;50.956;6.918;2023-04-02T00:32:58;100252.19;;;9.05;92.49
49473;BME280;67434;50.956;6.918;2023-04-02T00:35:44;100250.03;;;9.07;92.15
49473;BME280;67434;50.956;6.918;2023-04-02T00:38:32;100251.41;;;9.10;91.75
49473;BME280;67434;50.956;6.918;2023-04-02T00:41:23;100256.25;;;9.08;91.94
49473;BME280;67434;50.956;6.918;2023-04-02T00:44:13;100261.66;;;9.08;92.20
49473;BME280;67434;50.956;6.918;2023-04-02T00:47:05;100268.06;;;9.02;92.64
49473;BME280;67434;50.956;6.918;2023-04-02T00:49:58;100271.59;;;9.02;92.24
49473;BME280;67434;50.956;6.918;2023-04-02T00:52:47;100276.75;;;9.09;91.56
49473;BME280;67434;50.956;6.918;2023-04-02T00:55:40;100287.91;;;8.91;90.64
49473;BME280;67434;50.956;6.918;2023-04-02T00:58:32;100284.56;;;8.78;91.47
49473;BME280;67434;50.956;6.918;2023-04-02T01:01:21;100290.91;;;8.62;91.02
49473;BME280;67434;50.956;6.918;2023-04-02T01:04:27;100302.81;;;8.44;90.93
49473;BME280;67434;50.956;6.918;2023-04-02T01:07:13;100310.47;;;8.31;90.05
49473;BME280;67434;50.956;6.918;2023-04-02T01:19:20;100330.06;;;7.82;91.92
49473;BME280;67434;50.956;6.918;2023-04-02T01:22:21;100335.59;;;7.76;92.31
49473;BME280;67434;50.956;6.918;2023-04-02T01:25:13;100335.75;;;7.69;92.34
49473;BME280;67434;50.956;6.918;2023-04-02T01:28:21;100341.16;;;7.69;92.12
49473;BME280;67434;50.956;6.918;2023-04-02T01:31:14;100345.41;;;7.65;91.07
49473;BME280;67434;50.956;6.918;2023-04-02T01:34:02;100355.19;;;7.55;91.22
49473;BME280;67434;50.956;6.918;2023-04-02T01:36:57;100364.91;;;7.56;91.53
49473;BME280;67434;50.956;6.918;2023-04-02T01:40:04;100364.25;;;7.48;91.17
49473;BME280;67434;50.956;6.918;2023-04-02T01:43:23;100379.81;;;7.46;90.69
49473;BME280;67434;50.956;6.918;2023-04-02T01:46:29;100379.16;;;7.56;89.81
49473;BME280;67434;50.956;6.918;2023-04-02T01:49:19;100394.47;;;7.56;90.17
49473;BME280;67434;50.956;6.918;2023-04-02T01:52:06;100393.66;;;7.55;89.64
49473;BME280;67434;50.956;6.918;2023-04-02T01:54:53;100398.47;;;7.53;88.83
49473;BME280;67434;50.956;6.918;2023-04-02T01:57:45;100406.53;;;7.53;89.15
49473;BME280;67434;50.956;6.918;2023-04-02T02:00:34;100406.78;;;7.51;88.14
49473;BME280;67434;50.956;6.918;2023-04-02T02:03:22;100424.38;;;7.42;88.46
49473;BME280;67434;50.956;6.918;2023-04-02T02:06:12;100419.81;;;7.43;88.62
49473;BME280;67434;50.956;6.918;2023-04-02T02:09:01;100427.06;;;7.42;88.15
49473;BME280;67434;50.956;6.918;2023-04-02T02:11:49;100433.59;;;7.46;88.11
49473;BME280;67434;50.956;6.918;2023-04-02T02:14:35;100439.69;;;7.42;87.11
49473;BME280;67434;50.956;6.918;2023-04-02T02:17:28;100444.16;;;7.36;87.52
49473;BME280;67434;50.956;6.918;2023-04-02T02:20:15;100449.72;;;7.30;87.72
49473;BME280;67434;50.956;6.918;2023-04-02T02:23:02;100452.41;;;7.30;87.92
49473;BME280;67434;50.956;6.918;2023-04-02T02:25:53;100454.19;;;7.24;87.72
49473;BME280;67434;50.956;6.918;2023-04-02T02:28:40;100460.94;;;7.27;86.91
49473;BME280;67434;50.956;6.918;2023-04-02T02:31:29;100477.81;;;7.22;87.23
49473;BME280;67434;50.956;6.918;2023-04-02T02:34:20;100475.59;;;7.19;87.46
49473;BME280;67434;50.956;6.918;2023-04-02T02:37:23;100483.09;;;7.17;88.13
49473;BME280;67434;50.956;6.918;2023-04-02T02:40:13;100491.16;;;7.17;87.33
49473;BME280;67434;50.956;6.918;2023-04-02T02:43:03;100502.53;;;7.07;87.19
49473;BME280;67434;50.956;6.918;2023-04-02T02:45:52;100498.53;;;7.10;87.07
49473;BME280;67434;50.956;6.918;2023-04-02T02:48:40;100507.09;;;7.07;87.42
49473;BME280;67434;50.956;6.918;2023-04-02T02:51:38;100513.38;;;7.12;86.71
49473;BME280;67434;50.956;6.918;2023-04-02T02:54:24;100513.97;;;7.03;87.00
49473;BME280;67434;50.956;6.918;2023-04-02T02:57:15;100519.81;;;7.00;86.29
49473;BME280;67434;50.956;6.918;2023-04-02T03:00:04;100534.22;;;6.94;86.78
49473;BME280;67434;50.956;6.918;2023-04-02T03:02:53;100529.09;;;6.92;85.73
49473;BME280;67434;50.956;6.918;2023-04-02T03:05:40;100533.09;;;6.78;86.68
49473;BME280;67434;50.956;6.918;2023-04-02T03:08:43;100537.66;;;6.77;86.38
49473;BME280;67434;50.956;6.918;2023-04-02T03:11:48;100548.06;;;6.74;86.10
49473;BME280;67434;50.956;6.918;2023-04-02T03:14:45;100561.34;;;6.69;86.85
49473;BME280;67434;50.956;6.918;2023-04-02T03:17:41;100562.06;;;6.64;86.36
49473;BME280;67434;50.956;6.918;2023-04-02T03:23:22;100570.69;;;6.66;86.13
49473;BME280;67434;50.956;6.918;2023-04-02T03:26:21;100578.06;;;6.59;85.95
49473;BME280;67434;50.956;6.918;2023-04-02T03:29:21;100582.50;;;6.65;86.13
49473;BME280;67434;50.956;6.918;2023-04-02T03:32:16;100589.72;;;6.65;85.71
49473;BME280;67434;50.956;6.918;2023-04-02T03:35:18;100599.19;;;6.55;86.26
49473;BME280;67434;50.956;6.918;2023-04-02T03:38:22;100597.34;;;6.56;86.62
49473;BME280;67434;50.956;6.918;2023-04-02T03:41:14;100608.66;;;6.58;85.73
49473;BME280;67434;50.956;6.918;2023-04-02T03:44:05;100620.81;;;6.49;86.11
49473;BME280;67434;50.956;6.918;2023-04-02T03:47:02;100621.28;;;6.46;87.17
49473;BME280;67434;50.956;6.918;2023-04-02T03:50:09;100627.09;;;6.43;87.34
49473;BME280;67434;50.956;6.918;2023-04-02T03:52:57;100633.88;;;6.45;86.28
49473;BME280;67434;50.956;6.918;2023-04-02T03:55:44;100639.94;;;6.41;86.20
49473;BME280;67434;50.956;6.918;2023-04-02T03:58:40;100652.66;;;6.34;86.56
49473;BME280;67434;50.956;6.918;2023-04-02T04:01:32;100650.09;;;6.39;86.43
49473;BME280;67434;50.956;6.918;2023-04-02T04:04:21;100657.00;;;6.35;86.82
49473;BME280;67434;50.956;6.918;2023-04-02T04:07:17;100664.34;;;6.39;86.52
49473;BME280;67434;50.956;6.918;2023-04-02T04:10:06;100679.03;;;6.37;86.16
49473;BME280;67434;50.956;6.918;2023-04-02T04:12:56;100681.38;;;6.33;86.93
49473;BME280;67434;50.956;6.918;2023-04-02T04:15:58;100689.88;;;6.30;86.89
49473;BME280;67434;50.956;6.918;2023-04-02T04:18:53;100688.38;;;6.34;86.70
49473;BME280;67434;50.956;6.918;2023-04-02T04:21:47;100697.56;;;6.26;85.79
49473;BME280;67434;50.956;6.918;2023-04-02T04:24:33;100703.13;;;6.13;86.24
49473;BME280;67434;50.956;6.918;2023-04-02T04:27:47;100709.28;;;6.02;86.46
49473;BME280;67434;50.956;6.918;2023-04-02T04:31:00;100721.78;;;6.08;86.56
49473;BME280;67434;50.956;6.918;2023-04-02T04:33:52;100726.88;;;5.98;87.48
49473;BME280;67434;50.956;6.918;2023-04-02T04:36:43;100732.59;;;6.02;86.50
49473;BME280;67434;50.956;6.918;2023-04-02T04:42:42;100749.53;;;6.02;87.28
49473;BME280;67434;50.956;6.918;2023-04-02T04:45:41;100755.41;;;5.92;87.18
49473;BME280;67434;50.956;6.918;2023-04-02T04:48:34;100765.91;;;5.94;86.90
49473;BME280;67434;50.956;6.918;2023-04-02T04:51:50;100770.69;;;5.92;86.40
49473;BME280;67434;50.956;6.918;2023-04-02T04:54:38;100774.00;;;5.87;86.29
49473;BME280;67434;50.956;6.918;2023-04-02T04:57:38;100785.78;;;5.86;86.36
49473;BME280;67434;50.956;6.918;2023-04-02T05:00:42;100788.09;;;5.83;86.10
49473;BME280;67434;50.956;6.918;2023-04-02T05:03:39;100800.09;;;5.80;85.71
49473;BME280;67434;50.956;6.918;2023-04-02T05:09:58;100818.38;;;5.72;85.89
49473;BME280;67434;50.956;6.918;2023-04-02T05:12:55;100830.81;;;5.66;86.52
49473;BME280;67434;50.956;6.918;2023-04-02T05:15:49;100837.72;;;5.74;86.01
49473;BME280;67434;50.956;6.918;2023-04-02T05:18:43;100835.94;;;5.68;85.79
49473;BME280;67434;50.956;6.918;2023-04-02T05:21:38;100835.94;;;5.68;85.94
49473;BME280;67434;50.956;6.918;2023-04-02T05:24:40;100851.81;;;5.69;85.73
49473;BME280;67434;50.956;6.918;2023-04-02T05:27:40;100854.28;;;5.71;85.68
49473;BME280;67434;50.956;6.918;2023-04-02T05:36:10;100866.63;;;5.72;85.11
49473;BME280;67434;50.956;6.918;2023-04-02T05:38:57;100876.63;;;5.64;85.01
49473;BME280;67434;50.956;6.918;2023-04-02T05:41:45;100883.03;;;5.63;85.11
49473;BME280;67434;50.956;6.918;2023-04-02T05:44:38;100887.72;;;5.68;84.89
49473;BME280;67434;50.956;6.918;2023-04-02T05:47:30;100901.13;;;5.68;85.16
49473;BME280;67434;50.956;6.918;2023-04-02T05:50:22;100894.34;;;5.65;85.17
49473;BME280;67434;50.956;6.918;2023-04-02T05:53:14;100911.63;;;5.70;85.12
49473;BME280;67434;50.956;6.918;2023-04-02T05:59:05;100915.59;;;5.67;85.05
49473;BME280;67434;50.956;6.918;2023-04-02T06:04:57;100942.63;;;5.65;85.14
49473;BME280;67434;50.956;6.918;2023-04-02T06:11:10;100949.25;;;5.63;85.42
49473;BME280;67434;50.956;6.918;2023-04-02T06:13:58;100960.78;;;5.63;84.99
49473;BME280;67434;50.956;6.918;2023-04-02T06:16:44;100968.84;;;5.63;84.93
49473;BME280;67434;50.956;6.918;2023-04-02T06:19:34;100971.53;;;5.63;84.49
49473;BME280;67434;50.956;6.918;2023-04-02T06:25:23;100992.00;;;5.51;84.76
49473;BME280;67434;50.956;6.918;2023-04-02T06:28:14;100995.72;;;5.50;84.80
49473;BME280;67434;50.956;6.918;2023-04-02T06:31:07;100991.78;;;5.53;84.40
49473;BME280;67434;50.956;6.918;2023-04-02T06:33:55;101013.44;;;5.58;84.14
49473;BME280;67434;50.956;6.918;2023-04-02T06:36:41;101000.66;;;5.53;84.59
49473;BME280;67434;50.956;6.918;2023-04-02T06:39:27;101020.63;;;5.57;84.33
49473;BME280;67434;50.956;6.918;2023-04-02T06:42:20;101014.66;;;5.55;84.89
49473;BME280;67434;50.956;6.918;2023-04-02T06:45:15;101021.06;;;5.54;84.46
49473;BME280;67434;50.956;6.918;2023-04-02T06:48:03;101032.28;;;5.45;85.05
49473;BME280;67434;50.956;6.918;2023-04-02T06:51:01;101050.81;;;5.46;84.86
49473;BME280;67434;50.956;6.918;2023-04-02T06:53:49;101052.47;;;5.47;85.41
49473;BME280;67434;50.956;6.918;2023-04-02T06:56:42;101061.13;;;5.49;84.47
49473;BME280;67434;50.956;6.918;2023-04-02T06:59:29;101061.13;;;5.49;84.36
49473;BME280;67434;50.956;6.918;2023-04-02T07:02:27;101059.69;;;5.47;83.58
49473;BME280;67434;50.956;6.918;2023-04-02T07:05:15;101076.28;;;5.30;83.86
49473;BME280;67434;50.956;6.918;2023-04-02T07:08:01;101081.06;;;5.22;84.15
49473;BME280;67434;50.956;6.918;2023-04-02T07:10:46;101093.66;;;5.21;84.99
49473;BME280;67434;50.956;6.918;2023-04-02T07:13:32;101096.72;;;5.25;84.29
49473;BME280;67434;50.956;6.918;2023-04-02T07:16:18;101108.06;;;5.27;84.35
49473;BME280;67434;50.956;6.918;2023-04-02T07:19:05;101118.97;;;5.32;83.81
49473;BME280;67434;50.956;6.918;2023-04-02T07:21:51;101112.00;;;5.18;83.17
49473;BME280;67434;50.956;6.918;2023-04-02T07:24:37;101117.78;;;5.15;84.09
49473;BME280;67434;50.956;6.918;2023-04-02T07:27:22;101127.66;;;5.14;83.46
49473;BME280;67434;50.956;6.918;2023-04-02T07:30:08;101147.03;;;5.23;83.11
49473;BME280;67434;50.956;6.918;2023-04-02T07:32:54;101148.47;;;5.19;83.54
49473;BME280;67434;50.956;6.918;2023-04-02T07:35:40;101148.25;;;5.27;82.71
49473;BME280;67434;50.956;6.918;2023-04-02T07:38:25;101153.84;;;5.19;82.83
49473;BME280;67434;50.956;6.918;2023-04-02T07:41:11;101167.03;;;5.14;83.09
49473;BME280;67434;50.956;6.918;2023-04-02T07:43:57;101168.88;;;5.20;83.32
49473;BME280;67434;50.956;6.918;2023-04-02T07:46:43;101178.59;;;5.21;82.83
49473;BME280;67434;50.956;6.918;2023-04-02T07:49:28;101189.91;;;5.16;82.83
49473;BME280;67434;50.956;6.918;2023-04-02T07:52:14;101185.59;;;5.22;82.51
49473;BME280;67434;50.956;6.918;2023-04-02T07:55:00;101193.22;;;5.18;83.18
49473;BME280;67434;50.956;6.918;2023-04-02T07:57:51;101197.34;;;5.27;82.52
49473;BME280;67434;50.956;6.918;2023-04-02T08:00:37;101193.81;;;5.27;82.93
49473;BME280;67434;50.956;6.918;2023-04-02T08:03:23;101212.38;;;5.28;81.97
49473;BME280;67434;50.956;6.918;2023-04-02T08:06:09;101222.09;;;5.23;83.13
49473;BME280;67434;50.956;6.918;2023-04-02T08:08:56;101216.72;;;5.29;82.23
49473;BME280;67434;50.956;6.918;2023-04-02T08:11:42;101223.28;;;5.40;82.46
49473;BME280;67434;50.956;6.918;2023-04-02T08:14:27;101224.91;;;5.41;82.58
49473;BME280;67434;50.956;6.918;2023-04-02T08:17:13;101229.38;;;5.67;81.19
49473;BME280;67434;50.956;6.918;2023-04-02T08:19:59;101247.56;;;5.52;80.78
49473;BME280;67434;50.956;6.918;2023-04-02T08:22:46;101252.16;;;5.31;81.29
49473;BME280;67434;50.956;6.918;2023-04-02T08:25:32;101256.28;;;5.34;81.21
49473;BME280;67434;50.956;6.918;2023-04-02T08:28:18;101270.88;;;5.51;82.46
49473;BME280;67434;50.956;6.918;2023-04-02T08:31:04;101269.44;;;5.62;81.31
49473;BME280;67434;50.956;6.918;2023-04-02T08:33:49;101279.88;;;5.77;80.25
49473;BME280;67434;50.956;6.918;2023-04-02T08:36:37;101284.44;;;5.70;80.11
49473;BME280;67434;50.956;6.918;2023-04-02T08:39:23;101297.50;;;5.59;80.45
49473;BME280;67434;50.956;6.918;2023-04-02T08:45:22;101310.72;;;5.41;80.41
49473;BME280;67434;50.956;6.918;2023-04-02T08:48:18;101309.88;;;5.47;79.97
49473;BME280;67434;50.956;6.918;2023-04-02T08:51:06;101321.84;;;5.38;80.99
49473;BME280;67434;50.956;6.918;2023-04-02T08:53:55;101321.25;;;5.23;80.97
49473;BME280;67434;50.956;6.918;2023-04-02T08:57:03;101327.59;;;5.48;80.07
49473;BME280;67434;50.956;6.918;2023-04-02T08:59:59;101334.22;;;5.46;79.59
49473;BME280;67434;50.956;6.918;2023-04-02T09:02:52;101331.75;;;5.44;79.77
49473;BME280;67434;50.956;6.918;2023-04-02T09:05:42;101343.28;;;5.51;80.02
49473;BME280;67434;50.956;6.918;2023-04-02T09:08:30;101346.16;;;5.56;79.35
49473;BME280;67434;50.956;6.918;2023-04-02T09:14:14;101361.44;;;5.43;78.95
49473;BME280;67434;50.956;6.918;2023-04-02T09:17:01;101369.69;;;5.41;79.07
49473;BME280;67434;50.956;6.918;2023-04-02T09:22:37;101366.19;;;5.41;79.63
49473;BME280;67434;50.956;6.918;2023-04-02T09:25:28;101377.13;;;5.59;78.61
49473;BME280;67434;50.956;6.918;2023-04-02T09:28:18;101379.81;;;5.59;78.79
49473;BME280;67434;50.956;6.918;2023-04-02T09:31:18;101392.59;;;5.63;78.11
49473;BME280;67434;50.956;6.918;2023-04-02T09:34:32;101396.06;;;5.97;77.70
49473;BME280;67434;50.956;6.918;2023-04-02T09:37:20;101409.69;;;6.02;76.52
49473;BME280;67434;50.956;6.918;2023-04-02T09:45:55;101426.19;;;6.06;76.16
49473;BME280;67434;50.956;6.918;2023-04-02T09:48:53;101433.38;;;6.12;76.23
49473;BME280;67434;50.956;6.918;2023-04-02T09:51:42;101438.28;;;6.28;76.08
49473;BME280;67434;50.956;6.918;2023-04-02T09:54:28;101442.84;;;6.27;76.02
49473;BME280;67434;50.956;6.918;2023-04-02T09:57:22;101449.69;;;6.17;74.89
49473;BME280;67434;50.956;6.918;2023-04-02T10:03:01;101456.72;;;5.85;76.44
49473;BME280;67434;50.956;6.918;2023-04-02T10:06:03;101461.47;;;5.83;76.67
49473;BME280;67434;50.956;6.918;2023-04-02T10:08:49;101475.75;;;6.03;76.74
49473;BME280;67434;50.956;6.918;2023-04-02T10:11:34;101472.66;;;6.00;75.41
49473;BME280;67434;50.956;6.918;2023-04-02T10:14:25;101487.47;;;6.15;75.42
49473;BME280;67434;50.956;6.918;2023-04-02T10:17:26;101493.91;;;6.08;75.19
49473;BME280;67434;50.956;6.918;2023-04-02T10:20:21;101490.94;;;6.29;74.71
49473;BME280;67434;50.956;6.918;2023-04-02T10:23:15;101503.78;;;6.20;75.18
49473;BME280;67434;50.956;6.918;2023-04-02T10:26:11;101513.28;;;6.23;74.55
49473;BME280;67434;50.956;6.918;2023-04-02T10:32:41;101517.31;;;6.65;72.89
49473;BME280;67434;50.956;6.918;2023-04-02T10:35:50;101525.09;;;6.86;72.99
49473;BME280;67434;50.956;6.918;2023-04-02T10:38:43;101522.19;;;6.88;71.74
49473;BME280;67434;50.956;6.918;2023-04-02T10:44:51;101530.59;;;7.11;70.58
49473;BME280;67434;50.956;6.918;2023-04-02T10:47:45;101523.50;;;7.17;70.16
49473;BME280;67434;50.956;6.918;2023-04-02T10:50:37;101539.47;;;7.05;71.17
49473;BME280;67434;50.956;6.918;2023-04-02T10:53:36;101550.66;;;7.02;71.11
49473;BME280;67434;50.956;6.918;2023-04-02T10:56:24;101548.50;;;7.24;69.92
49473;BME280;67434;50.956;6.918;2023-04-02T10:59:18;101552.09;;;7.05;70.90
49473;BME280;67434;50.956;6.918;2023-04-02T11:02:23;101565.09;;;7.14;70.94
49473;BME280;67434;50.956;6.918;2023-04-02T11:05:25;101568.66;;;7.02;71.42
49473;BME280;67434;50.956;6.918;2023-04-02T11:08:22;101575.03;;;7.14;70.65
49473;BME280;67434;50.956;6.918;2023-04-02T11:11:20;101574.97;;;7.27;70.30
49473;BME280;67434;50.956;6.918;2023-04-02T11:14:23;101586.22;;;7.04;71.15
49473;BME280;67434;50.956;6.918;2023-04-02T11:17:12;101589.16;;;6.89;71.07
49473;BME280;67434;50.956;6.918;2023-04-02T11:23:27;101595.75;;;7.07;71.33
49473;BME280;67434;50.956;6.918;2023-04-02T11:26:38;101600.22;;;7.26;69.44
49473;BME280;67434;50.956;6.918;2023-04-02T11:29:26;101610.84;;;7.08;69.99
49473;BME280;67434;50.956;6.918;2023-04-02T11:35:23;101622.44;;;7.53;69.46
49473;BME280;67434;50.956;6.918;2023-04-02T11:41:06;101615.47;;;7.32;68.67
49473;BME280;67434;50.956;6.918;2023-04-02T11:43:59;101623.56;;;7.32;69.14
49473;BME280;67434;50.956;6.918;2023-04-02T11:46:45;101626.69;;;7.22;69.35
49473;BME280;67434;50.956;6.918;2023-04-02T11:55:28;101632.56;;;7.00;69.93
49473;BME280;67434;50.956;6.918;2023-04-02T12:04:38;101637.72;;;7.08;69.68
49473;BME280;67434;50.956;6.918;2023-04-02T12:10:59;101647.50;;;7.40;68.84
49473;BME280;67434;50.956;6.918;2023-04-02T12:13:47;101649.16;;;7.48;67.67
49473;BME280;67434;50.956;6.918;2023-04-02T12:16:34;101644.97;;;7.59;67.83
49473;BME280;67434;50.956;6.918;2023-04-02T12:19:21;101653.56;;;7.29;68.54
49473;BME280;67434;50.956;6.918;2023-04-02T12:22:17;101659.66;;;7.56;68.19
49473;BME280;67434;50.956;6.918;2023-04-02T12:33:52;101669.34;;;8.02;65.84
49473;BME280;67434;50.956;6.918;2023-04-02T12:36:38;101674.22;;;7.87;66.31
49473;BME280;67434;50.956;6.918;2023-04-02T12:39:25;101683.94;;;7.88;66.69
49473;BME280;67434;50.956;6.918;2023-04-02T12:42:35;101686.47;;;7.82;66.72
49473;BME280;67434;50.956;6.918;2023-04-02T12:45:26;101688.19;;;7.64;66.65
49473;BME280;67434;50.956;6.918;2023-04-02T12:48:13;101694.88;;;7.48;67.58
49473;BME280;67434;50.956;6.918;2023-04-02T12:50:59;101688.84;;;7.59;66.95
49473;BME280;67434;50.956;6.918;2023-04-02T12:53:51;101696.75;;;7.47;67.56
49473;BME280;67434;50.956;6.918;2023-04-02T12:56:37;101688.16;;;7.70;67.08
49473;BME280;67434;50.956;6.918;2023-04-02T12:59:33;101700.69;;;7.90;65.55
49473;BME280;67434;50.956;6.918;2023-04-02T13:02:22;101696.19;;;8.15;65.43
49473;BME280;67434;50.956;6.918;2023-04-02T13:05:09;101709.56;;;7.97;65.15
49473;BME280;67434;50.956;6.918;2023-04-02T13:07:55;101695.19;;;7.71;65.78
49473;BME280;67434;50.956;6.918;2023-04-02T13:10:41;101705.94;;;7.71;65.85
49473;BME280;67434;50.956;6.918;2023-04-02T13:13:35;101713.78;;;7.79;65.87
49473;BME280;67434;50.956;6.918;2023-04-02T13:16:32;101707.53;;;7.92;64.92
49473;BME280;67434;50.956;6.918;2023-04-02T13:19:32;101713.16;;;8.22;64.20
49473;BME280;67434;50.956;6.918;2023-04-02T13:22:30;101714.22;;;8.14;64.44
49473;BME280;67434;50.956;6.918;2023-04-02T13:25:16;101722.28;;;7.83;64.73
49473;BME280;67434;50.956;6.918;2023-04-02T13:28:02;101722.97;;;7.65;65.50
49473;BME280;67434;50.956;6.918;2023-04-02T13:30:47;101731.88;;;7.59;65.64
49473;BME280;67434;50.956;6.918;2023-04-02T13:33:33;101717.06;;;7.88;65.18
49473;BME280;67434;50.956;6.918;2023-04-02T13:36:19;101732.03;;;7.71;65.27
49473;BME280;67434;50.956;6.918;2023-04-02T13:39:06;101725.19;;;7.75;65.23
49473;BME280;67434;50.956;6.918;2023-04-02T13:41:55;101734.41;;;7.99;64.88
49473;BME280;67434;50.956;6.918;2023-04-02T13:44:42;101739.44;;;7.89;64.42
49473;BME280;67434;50.956;6.918;2023-04-02T13:47:27;101741.59;;;7.67;65.21
49473;BME280;67434;50.956;6.918;2023-04-02T13:50:17;101742.81;;;7.71;65.19
49473;BME280;67434;50.956;6.918;2023-04-02T13:53:05;101752.97;;;7.69;65.92
49473;BME280;67434;50.956;6.918;2023-04-02T13:55:52;101762.94;;;7.55;65.89
49473;BME280;67434;50.956;6.918;2023-04-02T13:58:37;101760.22;;;7.62;65.11
49473;BME280;67434;50.956;6.918;2023-04-02T14:01:23;101754.78;;;7.75;65.13
49473;BME280;67434;50.956;6.918;2023-04-02T14:04:14;101758.34;;;7.69;65.35
49473;BME280;67434;50.956;6.918;2023-04-02T14:22:55;101791.47;;;7.69;64.32
49473;BME280;67434;50.956;6.918;2023-04-02T14:28:52;101809.97;;;7.26;64.71
49473;BME280;67434;50.956;6.918;2023-04-02T14:40:51;101818.63;;;7.41;64.78
49473;BME280;67434;50.956;6.918;2023-04-02T14:43:59;101821.13;;;7.30;63.79
49473;BME280;67434;50.956;6.918;2023-04-02T14:46:46;101824.66;;;7.17;64.27
49473;BME280;67434;50.956;6.918;2023-04-02T14:49:37;101832.13;;;7.21;63.11
49473;BME280;67434;50.956;6.918;2023-04-02T14:52:27;101829.41;;;7.28;63.58
49473;BME280;67434;50.956;6.918;2023-04-02T14:55:42;101831.28;;;7.21;62.58
49473;BME280;67434;50.956;6.918;2023-04-02T14:58:38;101839.78;;;7.18;63.44
49473;BME280;67434;50.956;6.918;2023-04-02T15:01:36;101846.56;;;7.40;62.66
49473;BME280;67434;50.956;6.918;2023-04-02T15:04:30;101836.03;;;7.32;61.78
49473;BME280;67434;50.956;6.918;2023-04-02T15:07:32;101844.94;;;7.19;62.27
49473;BME280;67434;50.956;6.918;2023-04-02T15:10:25;101846.19;;;7.24;62.51
49473;BME280;67434;50.956;6.918;2023-04-02T15:13:18;101865.41;;;7.14;61.82
49473;BME280;67434;50.956;6.918;2023-04-02T15:16:13;101859.19;;;6.94;62.62
49473;BME280;67434;50.956;6.918;2023-04-02T15:19:02;101864.56;;;6.94;62.65
49473;BME280;67434;50.956;6.918;2023-04-02T15:25:05;101862.53;;;7.09;62.37
49473;BME280;67434;50.956;6.918;2023-04-02T15:28:11;101857.56;;;7.26;62.14
49473;BME280;67434;50.956;6.918;2023-04-02T15:31:11;101866.03;;;7.16;62.07
49473;BME280;67434;50.956;6.918;2023-04-02T15:37:38;101877.22;;;7.26;61.32
49473;BME280;67434;50.956;6.918;2023-04-02T15:40:46;101879.47;;;7.16;60.41
49473;BME280;67434;50.956;6.918;2023-04-02T15:44:11;101887.13;;;7.26;60.68
49473;BME280;67434;50.956;6.918;2023-04-02T15:47:33;101888.19;;;7.44;60.19
49473;BME280;67434;50.956;6.918;2023-04-02T15:53:32;101903.91;;;7.21;61.40
49473;BME280;67434;50.956;6.918;2023-04-02T15:56:29;101911.53;;;7.11;61.64
49473;BME280;67434;50.956;6.918;2023-04-02T16:11:15;101931.97;;;7.05;59.19
49473;BME280;67434;50.956;6.918;2023-04-02T16:14:23;101927.84;;;7.03;59.29
49473;BME280;67434;50.956;6.918;2023-04-02T16:17:15;101933.16;;;6.70;60.61
49473;BME280;67434;50.956;6.918;2023-04-02T16:20:30;101941.25;;;6.83;60.21
49473;BME280;67434;50.956;6.918;2023-04-02T16:23:21;101938.19;;;6.99;58.58
49473;BME280;67434;50.956;6.918;2023-04-02T16:29:37;101960.28;;;6.81;58.95
49473;BME280;67434;50.956;6.918;2023-04-02T16:35:48;101963.38;;;6.85;58.86
49473;BME280;67434;50.956;6.918;2023-04-02T16:50:37;101980.94;;;6.74;57.78
49473;BME280;67434;50.956;6.918;2023-04-02T16:59:56;101994.75;;;6.71;58.24
49473;BME280;67434;50.956;6.918;2023-04-02T17:12:19;102014.22;;;6.80;57.75
49473;BME280;67434;50.956;6.918;2023-04-02T17:15:33;102013.38;;;6.73;58.26
49473;BME280;67434;50.956;6.918;2023-04-02T17:18:21;102024.66;;;6.62;57.86
49473;BME280;67434;50.956;6.918;2023-04-02T17:21:13;102028.28;;;6.41;58.73
49473;BME280;67434;50.956;6.918;2023-04-02T17:24:09;102036.31;;;6.34;58.61
49473;BME280;67434;50.956;6.918;2023-04-02T17:33:13;102051.03;;;6.17;59.50
49473;BME280;67434;50.956;6.918;2023-04-02T17:38:48;102053.41;;;5.99;60.16
49473;BME280;67434;50.956;6.918;2023-04-02T17:44:37;102064.31;;;5.97;59.74
49473;BME280;67434;50.956;6.918;2023-04-02T17:47:44;102066.38;;;5.95;60.40
49473;BME280;67434;50.956;6.918;2023-04-02T17:50:42;102072.81;;;6.01;60.60
49473;BME280;67434;50.956;6.918;2023-04-02T17:53:37;102075.06;;;5.97;60.49
49473;BME280;67434;50.956;6.918;2023-04-02T17:56:50;102075.94;;;6.04;60.24
49473;BME280;67434;50.956;6.918;2023-04-02T17:59:49;102082.97;;;6.05;60.13
49473;BME280;67434;50.956;6.918;2023-04-02T18:03:03;102091.81;;;5.99;60.28
49473;BME280;67434;50.956;6.918;2023-04-02T18:06:15;102091.03;;;6.05;59.59
49473;BME280;67434;50.956;6.918;2023-04-02T18:24:14;102120.41;;;6.13;58.27
49473;BME280;67434;50.956;6.918;2023-04-02T18:27:23;102127.00;;;6.11;58.64
49473;BME280;67434;50.956;6.918;2023-04-02T18:30:39;102127.97;;;6.03;58.28
49473;BME280;67434;50.956;6.918;2023-04-02T18:37:07;102135.50;;;5.93;59.73
49473;BME280;67434;50.956;6.918;2023-04-02T18:46:57;102143.88;;;6.05;59.28
49473;BME280;67434;50.956;6.918;2023-04-02T18:52:55;102158.25;;;5.97;60.06
49473;BME280;67434;50.956;6.918;2023-04-02T18:55:49;102158.31;;;6.04;59.07